Station: EBLG - 12/07/2020 18:50Z (il y a 28 minutes)
EBLG 121850Z 03006KT CAVOK 19/07 Q1026 NOSIG
Vent du 030º - 6 kt
Visibilité > 10 km et plafond haut ou pas de nuages significatifs
Température: +19ºC - Point de rosée: +07ºC - QNH: 1026 hPa
Pas de changement significatif prévu dans les 2 heures qui suivent l'observation